Time;durP1;ratioP1;P1;durP2;ratioP2;P2;SDS_P1;SDS_P2;PMS_P1;PMS_P2;Temp;Humidity;BMP_temperature;BMP_pressure;BME280_temperature;BME280_humidity;BME280_pressure;Samples;Min_cycle;Max_cycle;Signal;HPM_P1;HPM_P2
2023/08/13 00:00:15;;;;;;;0.00;0.00;;;17.60;99.90;;;;;;4934886;28;20059;-69
2023/08/13 00:02:42;;;;;;;0.30;0.15;;;17.70;99.90;;;;;;4919083;28;20043;-69
2023/08/13 00:05:08;;;;;;;2.08;0.47;;;17.60;99.90;;;;;;4948637;28;20056;-69
2023/08/13 00:07:33;;;;;;;0.00;0.00;;;17.60;99.90;;;;;;4925615;28;20063;-69
2023/08/13 00:09:59;;;;;;;0.00;0.00;;;17.60;99.90;;;;;;4916500;28;20055;-69
2023/08/13 00:12:24;;;;;;;1.08;0.95;;;17.70;99.90;;;;;;4940166;28;20041;-69
2023/08/13 00:14:50;;;;;;;0.20;0.20;;;17.70;99.90;;;;;;4976980;28;20049;-69
2023/08/13 00:17:16;;;;;;;0.35;0.35;;;17.60;99.90;;;;;;4934772;28;20048;-70
2023/08/13 00:19:41;;;;;;;0.32;0.32;;;17.70;99.90;;;;;;4920732;28;20044;-69
2023/08/13 00:22:07;;;;;;;0.25;0.25;;;17.60;99.90;;;;;;4953158;28;20126;-69
2023/08/13 00:24:32;;;;;;;21.15;1.38;;;17.70;99.90;;;;;;4966835;28;20044;-69
2023/08/13 00:26:58;;;;;;;0.10;0.10;;;17.60;99.90;;;;;;4917391;28;20505;-69
2023/08/13 00:29:23;;;;;;;1.02;0.70;;;17.60;99.90;;;;;;4943149;28;20042;-69
2023/08/13 00:31:49;;;;;;;0.08;0.08;;;17.60;99.90;;;;;;4912032;28;20404;-69
2023/08/13 00:34:15;;;;;;;0.10;0.10;;;17.60;99.90;;;;;;4954243;28;20212;-69
2023/08/13 00:36:40;;;;;;;0.03;0.03;;;17.60;99.90;;;;;;4917852;28;20107;-70
2023/08/13 00:39:06;;;;;;;0.00;0.00;;;17.60;99.90;;;;;;4925338;28;20048;-69
2023/08/13 00:41:31;;;;;;;6.45;0.28;;;17.60;99.90;;;;;;4907894;28;20692;-70
2023/08/13 00:43:57;;;;;;;0.00;0.00;;;17.60;99.90;;;;;;4913852;28;20063;-70
2023/08/13 00:46:23;;;;;;;0.00;0.00;;;17.60;99.90;;;;;;4917588;28;20045;-69
2023/08/13 00:48:57;;;;;;;0.45;0.45;;;17.60;99.90;;;;;;4915021;28;20380;-70
2023/08/13 00:51:23;;;;;;;0.38;0.38;;;17.70;99.90;;;;;;4950951;28;20038;-70
2023/08/13 00:53:49;;;;;;;22.15;0.65;;;17.70;99.90;;;;;;4928747;28;20189;-69
2023/08/13 00:56:16;;;;;;;0.00;0.00;;;17.70;99.90;;;;;;4924407;28;20049;-69
2023/08/13 00:58:42;;;;;;;0.00;0.00;;;17.70;99.90;;;;;;4947491;28;20112;-70
2023/08/13 01:01:08;;;;;;;0.10;0.10;;;17.70;99.90;;;;;;4917950;28;20048;-70
2023/08/13 01:03:36;;;;;;;0.90;0.55;;;17.70;99.90;;;;;;4908583;28;20056;-69
2023/08/13 01:06:13;;;;;;;6.25;2.05;;;17.70;99.90;;;;;;4904939;28;20047;-70
2023/08/13 01:08:54;;;;;;;1.48;0.70;;;17.70;99.90;;;;;;4948187;28;20102;-70
2023/08/13 01:11:29;;;;;;;1.23;0.57;;;17.70;99.90;;;;;;4942126;28;20047;-70
2023/08/13 01:14:09;;;;;;;0.38;0.28;;;17.70;99.90;;;;;;4916763;28;20059;-70
2023/08/13 01:16:37;;;;;;;0.03;0.03;;;17.70;99.90;;;;;;4972894;28;20375;-70
2023/08/13 01:19:05;;;;;;;0.17;0.17;;;17.70;99.90;;;;;;4900815;28;20480;-70
2023/08/13 01:21:31;;;;;;;1.00;0.70;;;17.70;99.90;;;;;;4931333;28;20064;-70
2023/08/13 01:23:56;;;;;;;0.73;0.73;;;17.70;99.90;;;;;;4949497;28;20458;-70
2023/08/13 01:26:26;;;;;;;4.85;0.73;;;17.80;99.90;;;;;;4923890;28;20143;-70
2023/08/13 01:29:11;;;;;;;0.28;0.28;;;17.70;99.90;;;;;;4950487;28;20056;-69
2023/08/13 01:31:38;;;;;;;0.00;0.00;;;17.70;99.90;;;;;;4934069;28;20041;-69
2023/08/13 01:34:05;;;;;;;0.38;0.38;;;17.70;99.90;;;;;;4906349;28;20375;-69
2023/08/13 01:36:33;;;;;;;0.98;0.98;;;17.70;99.90;;;;;;4950783;28;20052;-70
2023/08/13 01:39:00;;;;;;;0.43;0.43;;;17.80;99.90;;;;;;4956042;28;20080;-69
2023/08/13 01:41:35;;;;;;;0.00;0.00;;;17.70;99.90;;;;;;4934020;28;20447;-70
2023/08/13 01:44:01;;;;;;;0.08;0.08;;;17.70;99.90;;;;;;4972366;28;20120;-69
2023/08/13 01:46:26;;;;;;;0.10;0.10;;;17.70;99.90;;;;;;4938774;28;20132;-70
2023/08/13 01:48:52;;;;;;;0.00;0.00;;;17.80;99.90;;;;;;4957569;28;20135;-69
2023/08/13 01:51:17;;;;;;;0.00;0.00;;;17.80;99.90;;;;;;4931182;28;20050;-69
2023/08/13 01:53:43;;;;;;;6.18;0.68;;;17.80;99.90;;;;;;4947175;28;20046;-69
2023/08/13 01:56:09;;;;;;;1.98;0.65;;;17.80;99.90;;;;;;4927410;28;20136;-69
2023/08/13 01:58:34;;;;;;;1.75;0.90;;;17.80;99.90;;;;;;4943073;28;20367;-69
2023/08/13 02:01:00;;;;;;;0.20;0.20;;;17.80;99.90;;;;;;4961490;28;20102;-69
2023/08/13 02:03:26;;;;;;;0.00;0.00;;;17.80;99.90;;;;;;4910617;28;20391;-69
2023/08/13 02:05:52;;;;;;;7.38;2.65;;;17.70;99.90;;;;;;4901139;28;20052;-69
2023/08/13 02:08:17;;;;;;;0.40;0.38;;;17.80;99.90;;;;;;4978139;28;20048;-68
2023/08/13 02:10:43;;;;;;;0.25;0.25;;;17.70;99.90;;;;;;4909005;28;20036;-69
2023/08/13 02:13:08;;;;;;;0.00;0.00;;;17.70;99.90;;;;;;4957658;28;20038;-68
2023/08/13 02:15:34;;;;;;;0.00;0.00;;;17.70;99.90;;;;;;4925474;28;20056;-69
2023/08/13 02:18:00;;;;;;;0.08;0.08;;;17.70;99.90;;;;;;4935576;28;20421;-69
2023/08/13 02:20:25;;;;;;;0.10;0.10;;;17.60;99.90;;;;;;4928056;28;20388;-69
2023/08/13 02:22:51;;;;;;;0.13;0.13;;;17.60;99.90;;;;;;4940579;28;20413;-69
2023/08/13 02:25:16;;;;;;;0.05;0.05;;;17.60;99.90;;;;;;4917097;28;20476;-69
2023/08/13 02:27:42;;;;;;;0.10;0.10;;;17.50;99.90;;;;;;4921790;28;20052;-69
2023/08/13 02:30:10;;;;;;;1.65;1.55;;;17.50;99.90;;;;;;4927636;28;20044;-69
2023/08/13 02:32:36;;;;;;;0.10;0.10;;;17.50;99.90;;;;;;4928596;28;20152;-69
2023/08/13 02:35:02;;;;;;;1.63;1.42;;;17.40;99.90;;;;;;4952091;28;20132;-69
2023/08/13 02:37:27;;;;;;;0.00;0.00;;;17.50;99.90;;;;;;4970087;28;20050;-69
2023/08/13 02:39:53;;;;;;;4.20;1.30;;;17.50;99.90;;;;;;4918205;28;20095;-69
2023/08/13 02:42:18;;;;;;;0.43;0.35;;;17.40;99.90;;;;;;4929560;28;20041;-69
2023/08/13 02:44:44;;;;;;;0.40;0.40;;;17.40;99.90;;;;;;4953850;28;20450;-69
2023/08/13 02:47:09;;;;;;;0.00;0.00;;;17.50;99.90;;;;;;4940045;28;20044;-69
2023/08/13 02:49:35;;;;;;;2.50;0.90;;;17.50;99.90;;;;;;4944711;28;20036;-69
2023/08/13 02:52:02;;;;;;;0.68;0.28;;;17.50;99.90;;;;;;4953647;28;20051;-69
2023/08/13 02:54:27;;;;;;;0.00;0.00;;;17.50;99.90;;;;;;4948283;28;20052;-69
2023/08/13 02:56:53;;;;;;;0.15;0.15;;;17.40;99.90;;;;;;4919642;28;20039;-69
2023/08/13 02:59:18;;;;;;;0.10;0.10;;;17.40;99.90;;;;;;4917717;28;20110;-69
2023/08/13 03:01:45;;;;;;;0.00;0.00;;;17.40;99.90;;;;;;4913945;28;20377;-69
2023/08/13 03:04:11;;;;;;;0.00;0.00;;;17.40;99.90;;;;;;4954688;28;20492;-69
2023/08/13 03:06:36;;;;;;;0.10;0.10;;;17.30;99.90;;;;;;4958340;28;20117;-69
2023/08/13 03:09:02;;;;;;;0.00;0.00;;;17.30;99.90;;;;;;4919426;28;20045;-69
2023/08/13 03:11:28;;;;;;;0.10;0.10;;;17.30;99.90;;;;;;4938514;28;20492;-69
2023/08/13 03:13:53;;;;;;;0.17;0.17;;;17.30;99.90;;;;;;4917246;28;20396;-69
2023/08/13 03:16:20;;;;;;;0.00;0.00;;;17.30;99.90;;;;;;4976397;28;20078;-69
2023/08/13 03:18:46;;;;;;;0.00;0.00;;;17.20;99.90;;;;;;4939268;28;20042;-69
2023/08/13 03:21:12;;;;;;;0.00;0.00;;;17.30;99.90;;;;;;4932423;28;20052;-69
2023/08/13 03:23:37;;;;;;;0.00;0.00;;;17.30;99.90;;;;;;4930317;28;20048;-70
2023/08/13 03:26:04;;;;;;;0.03;0.03;;;17.30;99.90;;;;;;4911600;28;20049;-69
2023/08/13 03:28:29;;;;;;;0.45;0.13;;;17.40;99.90;;;;;;4950784;28;20535;-70
2023/08/13 03:31:00;;;;;;;0.65;0.65;;;17.30;99.90;;;;;;4918548;28;20145;-70
2023/08/13 03:33:25;;;;;;;0.00;0.00;;;17.40;99.90;;;;;;4913734;28;20567;-70
2023/08/13 03:35:51;;;;;;;0.00;0.00;;;17.40;99.90;;;;;;4953703;28;20048;-69
2023/08/13 03:38:17;;;;;;;0.00;0.00;;;17.40;99.90;;;;;;4966738;28;20102;-70
2023/08/13 03:40:43;;;;;;;0.63;0.63;;;17.40;99.90;;;;;;4928651;28;20048;-70
2023/08/13 03:43:08;;;;;;;0.00;0.00;;;17.40;99.90;;;;;;4957115;28;20486;-70
2023/08/13 03:45:34;;;;;;;0.77;0.65;;;17.40;99.90;;;;;;4920228;28;20076;-70
2023/08/13 03:48:00;;;;;;;0.00;0.00;;;17.50;99.90;;;;;;4951152;28;20111;-70
2023/08/13 03:50:25;;;;;;;0.00;0.00;;;17.50;99.90;;;;;;4968362;28;20026;-70
2023/08/13 03:52:51;;;;;;;0.20;0.20;;;17.50;99.90;;;;;;4942384;28;20479;-70
2023/08/13 03:55:16;;;;;;;0.05;0.05;;;17.50;99.90;;;;;;4971479;28;20052;-70
2023/08/13 03:57:42;;;;;;;0.00;0.00;;;17.50;99.90;;;;;;4949452;28;20967;-70
2023/08/13 04:00:08;;;;;;;0.65;0.63;;;17.60;99.90;;;;;;4953894;28;20045;-70
2023/08/13 04:02:37;;;;;;;0.00;0.00;;;17.60;99.90;;;;;;4920974;28;20046;-70
2023/08/13 04:05:05;;;;;;;0.00;0.00;;;17.60;99.90;;;;;;4971875;28;20133;-70
2023/08/13 04:07:31;;;;;;;0.08;0.08;;;17.70;99.90;;;;;;4922572;28;20077;-70
2023/08/13 04:09:57;;;;;;;0.00;0.00;;;17.70;99.90;;;;;;4961827;28;20080;-70
2023/08/13 04:12:22;;;;;;;0.28;0.25;;;17.70;99.90;;;;;;4933201;28;20052;-70
2023/08/13 04:14:48;;;;;;;0.00;0.00;;;17.70;99.90;;;;;;4971903;28;20084;-70
2023/08/13 04:17:13;;;;;;;0.00;0.00;;;17.70;99.90;;;;;;4955916;28;20044;-70
2023/08/13 04:19:39;;;;;;;0.10;0.10;;;17.80;99.90;;;;;;4984053;28;20056;-71
2023/08/13 04:22:04;;;;;;;2.83;0.47;;;17.80;99.90;;;;;;4910067;28;20091;-71
2023/08/13 04:24:30;;;;;;;0.10;0.10;;;17.80;99.90;;;;;;4972496;28;20418;-70
2023/08/13 04:26:55;;;;;;;0.00;0.00;;;17.80;99.90;;;;;;4942431;28;20041;-71
2023/08/13 04:29:21;;;;;;;0.00;0.00;;;17.80;99.90;;;;;;4947022;28;20050;-70
2023/08/13 04:31:47;;;;;;;0.00;0.00;;;17.80;99.90;;;;;;4953416;28;20055;-70
2023/08/13 04:34:12;;;;;;;1.35;0.17;;;17.90;99.90;;;;;;4944872;28;20415;-70
2023/08/13 04:36:38;;;;;;;0.10;0.10;;;17.80;99.90;;;;;;4909555;28;20036;-70
2023/08/13 04:39:04;;;;;;;0.10;0.10;;;17.80;99.90;;;;;;4940201;28;20045;-71
2023/08/13 04:41:29;;;;;;;0.00;0.00;;;17.90;99.90;;;;;;4943333;28;20040;-71
2023/08/13 04:43:55;;;;;;;0.85;0.43;;;17.80;99.90;;;;;;4927746;28;20044;-71
2023/08/13 04:46:20;;;;;;;21.55;0.85;;;17.90;99.90;;;;;;4961247;28;20550;-71
2023/08/13 04:48:48;;;;;;;0.00;0.00;;;17.90;99.90;;;;;;4949514;28;20060;-71
2023/08/13 04:51:18;;;;;;;4.68;1.35;;;17.90;99.90;;;;;;4941725;28;20407;-70
2023/08/13 04:53:44;;;;;;;0.10;0.10;;;17.90;99.90;;;;;;4943535;28;20117;-71
2023/08/13 04:56:10;;;;;;;0.00;0.00;;;17.90;99.90;;;;;;4958771;28;20567;-70
2023/08/13 04:58:36;;;;;;;0.00;0.00;;;17.90;99.90;;;;;;4979307;28;20097;-71
2023/08/13 05:01:03;;;;;;;0.00;0.00;;;17.90;99.90;;;;;;4909237;28;20044;-70
2023/08/13 05:03:28;;;;;;;0.00;0.00;;;17.90;99.90;;;;;;4954233;28;20042;-71
2023/08/13 05:05:54;;;;;;;1.08;0.80;;;17.90;99.90;;;;;;4956620;28;20051;-71
2023/08/13 05:08:20;;;;;;;0.60;0.60;;;17.90;99.90;;;;;;4988914;28;20042;-71
2023/08/13 05:10:47;;;;;;;0.43;0.20;;;17.90;99.90;;;;;;4901602;28;20040;-70
2023/08/13 05:13:14;;;;;;;0.90;0.52;;;17.90;99.90;;;;;;4945386;28;20493;-70
2023/08/13 05:15:40;;;;;;;0.57;0.57;;;17.90;99.90;;;;;;4947640;28;20122;-70
2023/08/13 05:18:06;;;;;;;0.00;0.00;;;17.90;99.90;;;;;;4967463;28;20117;-70
2023/08/13 05:20:31;;;;;;;6.82;1.10;;;18.00;99.90;;;;;;4950765;28;20119;-71
2023/08/13 05:22:57;;;;;;;0.00;0.00;;;18.00;99.90;;;;;;4914862;28;20071;-70
2023/08/13 05:25:23;;;;;;;0.10;0.10;;;17.90;99.90;;;;;;4920364;28;20040;-71
2023/08/13 05:27:48;;;;;;;0.00;0.00;;;17.90;99.90;;;;;;4919704;28;20060;-70
2023/08/13 05:30:14;;;;;;;0.00;0.00;;;17.90;99.90;;;;;;4963263;28;20476;-71
2023/08/13 05:32:40;;;;;;;0.20;0.20;;;18.00;99.90;;;;;;4973600;28;20050;-70
2023/08/13 05:35:06;;;;;;;0.43;0.43;;;18.00;99.90;;;;;;4905777;28;20407;-70
2023/08/13 05:37:32;;;;;;;2.40;1.23;;;18.00;99.90;;;;;;4938863;28;20037;-70
2023/08/13 05:39:58;;;;;;;2.50;0.95;;;17.90;99.90;;;;;;4940854;28;20082;-70
2023/08/13 05:42:23;;;;;;;0.10;0.10;;;17.90;99.90;;;;;;4905458;28;20045;-70
2023/08/13 05:44:49;;;;;;;3.08;1.27;;;17.90;99.90;;;;;;4917106;28;20070;-70
2023/08/13 05:47:14;;;;;;;0.10;0.10;;;18.00;99.90;;;;;;4935354;28;20082;-70
2023/08/13 05:49:40;;;;;;;0.10;0.10;;;18.00;99.90;;;;;;4949216;28;20055;-70
2023/08/13 05:52:06;;;;;;;0.30;0.30;;;18.00;99.90;;;;;;4929215;28;20037;-70
2023/08/13 05:54:31;;;;;;;0.00;0.00;;;18.00;99.90;;;;;;4942184;28;20556;-70
2023/08/13 05:56:57;;;;;;;0.15;0.15;;;18.00;99.90;;;;;;4945652;28;20044;-70
2023/08/13 05:59:22;;;;;;;0.00;0.00;;;18.10;99.90;;;;;;4922453;28;20054;-70
2023/08/13 06:01:48;;;;;;;0.10;0.10;;;18.10;99.90;;;;;;4924627;28;20392;-71
2023/08/13 06:04:14;;;;;;;0.00;0.00;;;18.20;99.90;;;;;;4974402;28;20045;-68
2023/08/13 06:06:40;;;;;;;0.15;0.15;;;18.20;99.90;;;;;;4964120;28;20042;-69
2023/08/13 06:09:06;;;;;;;0.57;0.35;;;18.20;99.90;;;;;;4969901;28;20127;-69
2023/08/13 06:11:32;;;;;;;0.20;0.20;;;18.30;99.90;;;;;;4950018;28;20044;-69
2023/08/13 06:13:58;;;;;;;0.00;0.00;;;18.40;99.90;;;;;;4919558;28;20377;-70
2023/08/13 06:16:23;;;;;;;0.15;0.15;;;18.40;99.90;;;;;;4950861;28;20055;-69
2023/08/13 06:18:49;;;;;;;0.10;0.10;;;18.60;99.90;;;;;;4935116;28;20038;-68
2023/08/13 06:21:15;;;;;;;0.08;0.08;;;18.50;99.90;;;;;;4949942;28;20495;-69
2023/08/13 06:23:40;;;;;;;0.10;0.10;;;18.50;99.90;;;;;;4921111;28;20044;-69
2023/08/13 06:26:06;;;;;;;0.00;0.00;;;18.50;99.90;;;;;;4912015;28;20063;-69
2023/08/13 06:28:33;;;;;;;0.73;0.45;;;18.50;99.90;;;;;;4924046;28;20052;-69
2023/08/13 06:30:59;;;;;;;0.10;0.10;;;18.50;99.90;;;;;;4955022;28;20048;-69
2023/08/13 06:33:24;;;;;;;0.03;0.03;;;18.50;99.90;;;;;;4942101;28;20189;-69
2023/08/13 06:35:50;;;;;;;1.00;0.73;;;18.50;99.90;;;;;;4960918;28;20044;-69
2023/08/13 06:38:17;;;;;;;0.05;0.05;;;18.50;99.90;;;;;;4945386;28;20527;-69
2023/08/13 06:40:44;;;;;;;0.10;0.10;;;18.40;99.90;;;;;;4913033;28;20071;-69
2023/08/13 06:43:11;;;;;;;0.65;0.30;;;18.40;99.90;;;;;;4968395;28;20037;-69
2023/08/13 06:45:36;;;;;;;0.13;0.13;;;18.50;99.90;;;;;;4924939;28;20499;-69
2023/08/13 06:48:04;;;;;;;1.65;1.10;;;18.50;99.90;;;;;;4979165;28;20080;-69
2023/08/13 06:50:30;;;;;;;0.00;0.00;;;18.50;99.90;;;;;;4911097;28;20051;-69
2023/08/13 06:52:56;;;;;;;0.52;0.52;;;18.60;99.90;;;;;;4969579;28;20046;-68
2023/08/13 06:55:23;;;;;;;1.55;0.95;;;18.70;99.90;;;;;;4956321;28;20154;-69
2023/08/13 06:57:48;;;;;;;0.00;0.00;;;18.80;99.90;;;;;;4938035;28;20052;-68
2023/08/13 07:00:15;;;;;;;0.73;0.63;;;18.80;99.90;;;;;;4918781;28;20047;-69
2023/08/13 07:02:40;;;;;;;0.00;0.00;;;18.80;99.90;;;;;;4928542;28;20262;-69
2023/08/13 07:05:11;;;;;;;0.00;0.00;;;18.80;99.90;;;;;;4912200;28;20114;-69
2023/08/13 07:07:36;;;;;;;9.23;3.10;;;18.80;99.90;;;;;;4960648;28;20056;-70
2023/08/13 07:10:04;;;;;;;0.47;0.47;;;18.80;99.90;;;;;;4923508;28;20048;-70
2023/08/13 07:12:29;;;;;;;5.60;1.95;;;18.80;99.90;;;;;;4927842;28;20048;-69
2023/08/13 07:14:55;;;;;;;0.00;0.00;;;18.80;99.90;;;;;;4937384;28;20049;-69
2023/08/13 07:17:21;;;;;;;0.00;0.00;;;18.90;99.90;;;;;;4923476;28;20524;-70
2023/08/13 07:19:49;;;;;;;2.03;1.85;;;19.00;99.90;;;;;;4960403;28;20053;-69
2023/08/13 07:22:15;;;;;;;0.00;0.00;;;19.10;99.90;;;;;;4917256;28;20090;-68
2023/08/13 07:24:41;;;;;;;0.47;0.47;;;19.20;99.90;;;;;;4954754;28;20456;-69
2023/08/13 07:27:07;;;;;;;0.00;0.00;;;19.20;99.90;;;;;;4930866;28;20037;-69
2023/08/13 07:29:33;;;;;;;0.00;0.00;;;19.20;99.90;;;;;;4921011;28;20688;-70
2023/08/13 07:31:59;;;;;;;0.57;0.57;;;19.40;99.90;;;;;;4970604;28;20046;-68
2023/08/13 07:34:24;;;;;;;0.00;0.00;;;19.40;99.90;;;;;;4948531;28;20572;-69
2023/08/13 07:36:51;;;;;;;2.63;2.17;;;19.40;99.90;;;;;;4923389;28;20076;-68
2023/08/13 07:39:16;;;;;;;0.57;0.57;;;19.50;99.90;;;;;;4941351;28;20052;-68
2023/08/13 07:41:43;;;;;;;0.00;0.00;;;19.40;99.90;;;;;;4903051;28;21745;-68
2023/08/13 07:44:08;;;;;;;0.35;0.35;;;19.50;99.90;;;;;;4927067;28;20048;-68
2023/08/13 07:46:34;;;;;;;0.20;0.20;;;19.60;99.90;;;;;;4918762;28;20089;-68
2023/08/13 07:49:00;;;;;;;0.00;0.00;;;19.60;99.90;;;;;;4911478;28;20048;-68
2023/08/13 07:51:25;;;;;;;3.20;1.85;;;19.60;99.90;;;;;;4906150;28;20036;-68
2023/08/13 07:53:51;;;;;;;0.35;0.35;;;19.40;99.90;;;;;;4948948;28;20077;-68
2023/08/13 07:56:17;;;;;;;0.00;0.00;;;19.40;99.90;;;;;;4931035;28;20041;-68
2023/08/13 07:58:42;;;;;;;0.45;0.45;;;19.40;99.90;;;;;;4908321;28;20047;-69
2023/08/13 08:01:08;;;;;;;0.05;0.05;;;19.30;99.90;;;;;;4940826;28;20055;-69
2023/08/13 08:03:34;;;;;;;0.10;0.10;;;19.30;99.90;;;;;;4943596;28;20562;-68
2023/08/13 08:05:59;;;;;;;0.30;0.30;;;19.30;99.90;;;;;;4916366;28;20091;-69
2023/08/13 08:08:25;;;;;;;3.53;0.55;;;19.30;99.90;;;;;;4912675;28;20047;-68
2023/08/13 08:10:50;;;;;;;0.63;0.63;;;19.30;99.90;;;;;;4946766;28;20497;-68
2023/08/13 08:13:16;;;;;;;0.00;0.00;;;19.30;99.90;;;;;;4965240;28;20184;-68
2023/08/13 08:15:41;;;;;;;0.20;0.10;;;19.30;99.90;;;;;;4952291;28;20045;-68
2023/08/13 08:18:07;;;;;;;0.52;0.52;;;19.40;99.90;;;;;;4933632;28;20059;-68
2023/08/13 08:20:33;;;;;;;0.35;0.25;;;19.50;99.90;;;;;;4941823;28;20051;-68
2023/08/13 08:22:58;;;;;;;0.03;0.03;;;19.50;99.90;;;;;;4943935;28;20052;-68
2023/08/13 08:25:24;;;;;;;0.70;0.70;;;19.70;99.90;;;;;;4953194;28;20040;-68
2023/08/13 08:27:51;;;;;;;1.30;1.30;;;19.80;99.90;;;;;;4929345;28;20040;-68
2023/08/13 08:30:16;;;;;;;0.20;0.20;;;19.80;99.90;;;;;;4982368;28;20049;-68
2023/08/13 08:32:42;;;;;;;0.10;0.10;;;19.80;99.90;;;;;;4963739;28;20062;-68
2023/08/13 08:35:08;;;;;;;0.32;0.32;;;19.90;99.90;;;;;;4927156;28;20061;-68
2023/08/13 08:37:34;;;;;;;0.38;0.38;;;19.90;99.90;;;;;;4927041;28;20159;-68
2023/08/13 08:39:59;;;;;;;0.00;0.00;;;19.90;99.90;;;;;;4942278;28;20054;-68
2023/08/13 08:42:26;;;;;;;0.05;0.05;;;19.90;99.90;;;;;;4964805;28;20479;-69
2023/08/13 08:44:52;;;;;;;0.10;0.10;;;19.80;99.90;;;;;;4913142;28;20049;-69
2023/08/13 08:47:20;;;;;;;0.00;0.00;;;19.80;99.90;;;;;;4970176;28;20448;-69
2023/08/13 08:49:48;;;;;;;0.03;0.03;;;19.80;99.90;;;;;;4926991;28;20046;-69
2023/08/13 08:52:17;;;;;;;0.10;0.10;;;19.70;99.90;;;;;;4915311;28;20176;-68
2023/08/13 08:54:42;;;;;;;0.10;0.10;;;19.80;99.90;;;;;;4950631;28;20512;-68
2023/08/13 08:57:08;;;;;;;0.00;0.00;;;19.80;99.90;;;;;;4922830;28;20044;-68
2023/08/13 08:59:35;;;;;;;0.00;0.00;;;19.80;99.90;;;;;;4934959;28;20380;-69
2023/08/13 09:02:01;;;;;;;0.00;0.00;;;19.80;99.90;;;;;;4953209;28;20044;-69
2023/08/13 09:04:27;;;;;;;0.00;0.00;;;19.90;99.90;;;;;;4926414;28;20048;-69
2023/08/13 09:07:03;;;;;;;1.65;1.35;;;20.00;99.90;;;;;;4937740;28;20037;-68
2023/08/13 09:09:29;;;;;;;0.75;0.75;;;20.10;99.90;;;;;;4944482;28;20063;-69
2023/08/13 09:11:57;;;;;;;0.00;0.00;;;19.90;99.90;;;;;;4965748;28;20042;-69
2023/08/13 09:14:23;;;;;;;0.00;0.00;;;19.90;99.90;;;;;;4915855;28;20135;-69
2023/08/13 09:16:51;;;;;;;1.10;1.00;;;19.90;99.90;;;;;;4931503;28;20485;-69
2023/08/13 09:19:17;;;;;;;5.05;0.28;;;19.80;99.90;;;;;;4942887;28;20555;-69
2023/08/13 09:21:52;;;;;;;0.17;0.17;;;19.80;99.90;;;;;;4924678;28;20411;-70
2023/08/13 09:24:18;;;;;;;4.20;0.95;;;19.90;99.90;;;;;;4915217;28;20474;-69
2023/08/13 09:26:44;;;;;;;0.70;0.70;;;20.40;99.90;;;;;;4913934;28;20495;-69
2023/08/13 09:29:11;;;;;;;0.10;0.10;;;20.80;99.90;;;;;;4919741;28;20488;-70
2023/08/13 09:31:36;;;;;;;0.17;0.17;;;20.90;99.90;;;;;;4939531;28;20155;-69
2023/08/13 09:34:03;;;;;;;3.72;1.27;;;21.10;99.90;;;;;;4917980;28;20563;-69
2023/08/13 09:36:29;;;;;;;0.10;0.10;;;21.10;99.90;;;;;;4923009;28;20530;-70
2023/08/13 09:38:56;;;;;;;0.00;0.00;;;21.40;99.90;;;;;;4935896;28;20054;-70
2023/08/13 09:41:22;;;;;;;0.00;0.00;;;21.90;99.90;;;;;;4968434;28;20466;-70
2023/08/13 09:43:49;;;;;;;0.00;0.00;;;22.00;99.90;;;;;;4950937;28;20048;-70
2023/08/13 09:46:21;;;;;;;0.30;0.10;;;22.10;99.90;;;;;;4940679;28;20492;-71
2023/08/13 09:48:47;;;;;;;1.27;1.17;;;22.00;99.90;;;;;;4935940;28;20115;-70
2023/08/13 09:51:14;;;;;;;0.00;0.00;;;22.00;99.90;;;;;;4934416;28;20080;-70
2023/08/13 09:53:52;;;;;;;0.00;0.00;;;21.90;99.90;;;;;;4914780;28;20444;-71
2023/08/13 09:56:20;;;;;;;0.30;0.30;;;21.60;99.90;;;;;;4896546;28;20500;-69
2023/08/13 09:58:46;;;;;;;0.10;0.10;;;21.30;99.90;;;;;;4937057;28;20392;-70
2023/08/13 10:01:13;;;;;;;0.55;0.43;;;21.10;99.90;;;;;;4957482;28;20056;-70
2023/08/13 10:03:39;;;;;;;0.10;0.10;;;21.00;99.90;;;;;;4934446;28;20063;-69
2023/08/13 10:06:06;;;;;;;0.00;0.00;;;20.90;99.90;;;;;;4911892;28;20383;-70
2023/08/13 10:08:32;;;;;;;10.95;0.70;;;20.80;99.90;;;;;;4936372;28;20045;-70
2023/08/13 10:10:58;;;;;;;0.57;0.57;;;20.80;99.90;;;;;;4945444;28;20449;-70
2023/08/13 10:13:24;;;;;;;0.10;0.10;;;20.80;99.90;;;;;;4941263;28;20110;-70
2023/08/13 10:15:50;;;;;;;0.00;0.00;;;20.80;99.90;;;;;;4935735;28;20046;-70
2023/08/13 10:18:16;;;;;;;0.00;0.00;;;20.80;99.90;;;;;;4918329;28;20048;-69
2023/08/13 10:20:45;;;;;;;0.15;0.15;;;20.80;99.90;;;;;;4951149;28;20131;-70
2023/08/13 10:23:11;;;;;;;0.00;0.00;;;20.70;99.90;;;;;;4948737;28;20047;-70
2023/08/13 10:25:39;;;;;;;1.65;1.27;;;20.60;99.90;;;;;;4926412;28;20041;-70
2023/08/13 10:28:20;;;;;;;0.15;0.15;;;20.50;99.90;;;;;;4949789;28;20040;-69
2023/08/13 10:30:46;;;;;;;0.57;0.45;;;20.30;99.90;;;;;;4946341;28;20098;-70
2023/08/13 10:33:13;;;;;;;0.15;0.15;;;20.30;99.90;;;;;;4914486;28;20059;-70
2023/08/13 10:35:39;;;;;;;1.85;0.57;;;20.20;99.90;;;;;;4927047;28;20048;-70
2023/08/13 10:38:06;;;;;;;0.00;0.00;;;20.30;99.90;;;;;;4911126;28;20047;-69
2023/08/13 10:40:32;;;;;;;0.00;0.00;;;20.40;99.90;;;;;;4923011;28;20446;-69
2023/08/13 10:43:02;;;;;;;16.45;0.55;;;20.50;99.90;;;;;;4960085;28;20278;-69
2023/08/13 10:45:35;;;;;;;1.42;1.33;;;20.50;99.90;;;;;;4910190;28;20139;-69
2023/08/13 10:48:08;;;;;;;1.83;0.45;;;20.70;99.90;;;;;;4952403;28;20573;-69
2023/08/13 10:50:39;;;;;;;0.98;0.98;;;20.90;99.90;;;;;;4921255;28;20627;-69
2023/08/13 10:53:09;;;;;;;0.00;0.00;;;21.00;99.90;;;;;;4932404;28;20173;-69
2023/08/13 10:55:40;;;;;;;0.00;0.00;;;21.00;99.90;;;;;;4926751;28;20096;-69
2023/08/13 10:58:08;;;;;;;0.00;0.00;;;20.90;99.90;;;;;;4919480;28;20055;-68
2023/08/13 11:00:42;;;;;;;0.10;0.10;;;20.80;99.90;;;;;;4953532;28;20516;-69
2023/08/13 11:03:20;;;;;;;0.03;0.03;;;20.60;99.90;;;;;;4915926;28;20087;-70
2023/08/13 11:05:46;;;;;;;0.00;0.00;;;20.70;99.90;;;;;;4919740;28;20051;-69
2023/08/13 11:08:20;;;;;;;0.77;0.75;;;20.60;99.90;;;;;;4920690;28;20044;-69
2023/08/13 11:10:47;;;;;;;0.00;0.00;;;20.60;99.90;;;;;;4943887;28;20050;-69
2023/08/13 11:13:13;;;;;;;0.17;0.17;;;20.50;99.90;;;;;;4937690;28;20381;-69
2023/08/13 11:15:41;;;;;;;0.10;0.10;;;20.50;99.90;;;;;;4927571;28;20488;-68
2023/08/13 11:18:06;;;;;;;12.77;1.30;;;20.50;99.90;;;;;;4915975;28;20045;-69
2023/08/13 11:20:33;;;;;;;0.20;0.20;;;20.50;99.90;;;;;;4958104;28;20107;-68
2023/08/13 11:22:58;;;;;;;0.00;0.00;;;20.60;99.90;;;;;;4967057;28;20168;-69
2023/08/13 11:25:26;;;;;;;0.00;0.00;;;20.60;99.90;;;;;;4910727;28;20123;-70
2023/08/13 11:27:52;;;;;;;0.00;0.00;;;20.60;99.90;;;;;;4941455;28;20394;-69
2023/08/13 11:30:17;;;;;;;3.60;1.17;;;20.60;99.90;;;;;;4908623;28;20053;-69
2023/08/13 11:32:44;;;;;;;1.00;0.47;;;20.70;99.90;;;;;;4940631;28;20442;-69
2023/08/13 11:35:10;;;;;;;0.70;0.40;;;20.80;99.90;;;;;;4957211;28;20046;-69
2023/08/13 11:37:40;;;;;;;0.20;0.20;;;20.90;99.90;;;;;;4912950;28;20059;-69
2023/08/13 11:40:10;;;;;;;0.00;0.00;;;21.30;99.90;;;;;;4925234;28;20060;-69
2023/08/13 11:42:55;;;;;;;1.08;0.85;;;21.80;99.90;;;;;;4917140;28;20469;-70
2023/08/13 11:45:23;;;;;;;0.05;0.05;;;22.20;99.90;;;;;;4905710;28;20406;-69
2023/08/13 11:47:49;;;;;;;1.75;0.32;;;22.40;99.90;;;;;;4944599;28;20098;-69
2023/08/13 11:50:23;;;;;;;0.20;0.20;;;22.70;99.90;;;;;;4945178;28;20059;-69
2023/08/13 11:53:21;;;;;;;0.00;0.00;;;22.60;99.90;;;;;;4923896;28;20040;-69
2023/08/13 11:55:48;;;;;;;12.80;0.38;;;22.10;99.90;;;;;;4948254;28;20115;-70
2023/08/13 11:58:20;;;;;;;0.28;0.28;;;21.90;99.90;;;;;;4938536;28;20041;-70
2023/08/13 12:00:50;;;;;;;0.93;0.93;;;21.60;99.90;;;;;;4907892;28;20052;-69
2023/08/13 12:03:15;;;;;;;2.08;0.75;;;21.40;99.90;;;;;;4911244;28;20067;-69
2023/08/13 12:05:42;;;;;;;0.20;0.20;;;21.20;99.90;;;;;;4916561;28;20040;-69
2023/08/13 12:08:09;;;;;;;0.00;0.00;;;21.10;99.90;;;;;;4940952;28;20053;-70
2023/08/13 12:10:36;;;;;;;0.00;0.00;;;21.00;99.90;;;;;;4938570;28;20153;-70
2023/08/13 12:13:02;;;;;;;0.00;0.00;;;21.00;99.90;;;;;;4941014;28;20079;-69
2023/08/13 12:15:29;;;;;;;0.05;0.05;;;21.00;99.90;;;;;;4919733;28;20080;-69
2023/08/13 12:17:57;;;;;;;0.63;0.30;;;21.20;99.90;;;;;;4936981;28;20095;-69
2023/08/13 12:20:22;;;;;;;0.00;0.00;;;21.30;99.90;;;;;;4941827;28;20151;-69
2023/08/13 12:22:49;;;;;;;2.30;1.20;;;21.40;99.90;;;;;;4926744;28;20456;-69
2023/08/13 12:25:15;;;;;;;0.38;0.28;;;21.40;99.90;;;;;;4930995;28;20044;-68
2023/08/13 12:27:42;;;;;;;0.03;0.03;;;21.30;99.90;;;;;;4931853;28;20072;-70
2023/08/13 12:30:09;;;;;;;6.03;0.95;;;21.20;99.90;;;;;;4928819;28;20100;-69
2023/08/13 12:32:35;;;;;;;0.10;0.10;;;21.20;99.90;;;;;;4919369;28;20055;-68
2023/08/13 12:35:01;;;;;;;0.00;0.00;;;21.20;99.90;;;;;;4955676;28;20045;-69
2023/08/13 12:37:26;;;;;;;0.17;0.17;;;21.20;99.90;;;;;;4903324;28;20048;-67
2023/08/13 12:39:52;;;;;;;0.40;0.40;;;21.20;99.90;;;;;;4938792;28;20040;-70
2023/08/13 12:42:19;;;;;;;0.00;0.00;;;21.20;99.90;;;;;;4940654;28;20073;-68